sensor_id;sensor_type;location;lat;lon;timestamp;pressure;altitude;pressure_sealevel;temperature;humidity
12054;BME280;5638;50.860;4.698;2022-10-31T00:03:41;101628.38;;;16.31;nan
12054;BME280;5638;50.860;4.698;2022-10-31T00:06:07;101633.78;;;16.23;nan
12054;BME280;5638;50.860;4.698;2022-10-31T00:08:33;101618.31;;;16.15;nan
12054;BME280;5638;50.860;4.698;2022-10-31T00:10:59;101629.78;;;16.10;nan
12054;BME280;5638;50.860;4.698;2022-10-31T00:13:25;101633.25;;;16.10;nan
12054;BME280;5638;50.860;4.698;2022-10-31T00:15:51;101620.00;;;16.18;nan
12054;BME280;5638;50.860;4.698;2022-10-31T00:18:17;101609.81;;;16.07;nan
12054;BME280;5638;50.860;4.698;2022-10-31T00:20:43;101625.38;;;16.12;nan
12054;BME280;5638;50.860;4.698;2022-10-31T00:23:10;101611.81;;;15.98;nan
12054;BME280;5638;50.860;4.698;2022-10-31T00:25:38;101623.91;;;16.00;nan
12054;BME280;5638;50.860;4.698;2022-10-31T00:28:06;101614.47;;;15.94;nan
12054;BME280;5638;50.860;4.698;2022-10-31T00:30:33;101617.94;;;15.95;nan
12054;BME280;5638;50.860;4.698;2022-10-31T00:32:59;101599.84;;;15.87;nan
12054;BME280;5638;50.860;4.698;2022-10-31T00:35:25;101611.75;;;15.99;nan
12054;BME280;5638;50.860;4.698;2022-10-31T00:37:53;101609.75;;;16.09;nan
12054;BME280;5638;50.860;4.698;2022-10-31T00:40:18;101620.31;;;16.06;nan
12054;BME280;5638;50.860;4.698;2022-10-31T00:42:44;101616.06;;;16.02;nan
12054;BME280;5638;50.860;4.698;2022-10-31T00:45:11;101611.88;;;15.94;nan
12054;BME280;5638;50.860;4.698;2022-10-31T00:47:37;101616.38;;;15.88;nan
12054;BME280;5638;50.860;4.698;2022-10-31T00:50:05;101612.09;;;15.85;nan
12054;BME280;5638;50.860;4.698;2022-10-31T00:52:31;101617.38;;;15.82;nan
12054;BME280;5638;50.860;4.698;2022-10-31T00:54:57;101602.88;;;15.71;nan
12054;BME280;5638;50.860;4.698;2022-10-31T00:57:23;101614.09;;;15.74;nan
12054;BME280;5638;50.860;4.698;2022-10-31T00:59:49;101608.19;;;15.67;nan
12054;BME280;5638;50.860;4.698;2022-10-31T01:02:14;101609.91;;;15.67;nan
12054;BME280;5638;50.860;4.698;2022-10-31T01:04:40;101612.41;;;15.72;nan
12054;BME280;5638;50.860;4.698;2022-10-31T01:07:06;101619.38;;;15.71;nan
12054;BME280;5638;50.860;4.698;2022-10-31T01:09:32;101627.16;;;15.74;nan
12054;BME280;5638;50.860;4.698;2022-10-31T01:11:58;101621.13;;;15.72;nan
12054;BME280;5638;50.860;4.698;2022-10-31T01:14:24;101628.72;;;15.81;nan
12054;BME280;5638;50.860;4.698;2022-10-31T01:16:50;101619.19;;;15.80;nan
12054;BME280;5638;50.860;4.698;2022-10-31T01:19:16;101620.16;;;15.76;nan
12054;BME280;5638;50.860;4.698;2022-10-31T01:21:41;101612.41;;;15.73;nan
12054;BME280;5638;50.860;4.698;2022-10-31T01:24:08;101622.03;;;15.69;nan
12054;BME280;5638;50.860;4.698;2022-10-31T01:26:34;101612.59;;;15.62;nan
12054;BME280;5638;50.860;4.698;2022-10-31T01:29:06;101618.81;;;15.57;nan
12054;BME280;5638;50.860;4.698;2022-10-31T01:31:38;101629.22;;;15.58;nan
12054;BME280;5638;50.860;4.698;2022-10-31T01:34:05;101628.53;;;15.50;nan
12054;BME280;5638;50.860;4.698;2022-10-31T01:36:37;101609.78;;;15.34;nan
12054;BME280;5638;50.860;4.698;2022-10-31T01:39:12;101625.28;;;15.40;nan
12054;BME280;5638;50.860;4.698;2022-10-31T01:41:49;101618.41;;;15.36;nan
12054;BME280;5638;50.860;4.698;2022-10-31T01:46:59;101618.41;;;15.36;nan
12054;BME280;5638;50.860;4.698;2022-10-31T01:52:11;101622.88;;;15.30;nan
12054;BME280;5638;50.860;4.698;2022-10-31T01:54:45;101601.44;;;15.17;nan
12054;BME280;5638;50.860;4.698;2022-10-31T01:57:14;101604.03;;;15.18;nan
12054;BME280;5638;50.860;4.698;2022-10-31T01:59:48;101607.59;;;15.13;nan
12054;BME280;5638;50.860;4.698;2022-10-31T02:02:17;101605.13;;;15.07;nan
12054;BME280;5638;50.860;4.698;2022-10-31T02:04:44;101601.69;;;15.05;nan
12054;BME280;5638;50.860;4.698;2022-10-31T02:07:20;101609.56;;;15.03;nan
12054;BME280;5638;50.860;4.698;2022-10-31T02:09:51;101594.88;;;14.99;nan
12054;BME280;5638;50.860;4.698;2022-10-31T02:12:19;101605.88;;;15.13;nan
12054;BME280;5638;50.860;4.698;2022-10-31T02:14:46;101605.84;;;15.15;nan
12054;BME280;5638;50.860;4.698;2022-10-31T02:17:13;101602.47;;;15.10;nan
12054;BME280;5638;50.860;4.698;2022-10-31T02:20:10;101590.50;;;15.01;nan
12054;BME280;5638;50.860;4.698;2022-10-31T02:29:25;101590.56;;;14.98;nan
12054;BME280;5638;50.860;4.698;2022-10-31T02:32:20;101590.81;;;14.86;nan
12054;BME280;5638;50.860;4.698;2022-10-31T02:35:17;101586.50;;;14.83;nan
12054;BME280;5638;50.860;4.698;2022-10-31T02:41:23;101586.63;;;14.77;nan
12054;BME280;5638;50.860;4.698;2022-10-31T02:49:39;101576.16;;;14.80;nan
12054;BME280;5638;50.860;4.698;2022-10-31T02:52:28;101580.59;;;14.75;nan
12054;BME280;5638;50.860;4.698;2022-10-31T02:54:55;101574.59;;;14.72;nan
12054;BME280;5638;50.860;4.698;2022-10-31T02:57:32;101566.84;;;14.67;nan
12054;BME280;5638;50.860;4.698;2022-10-31T03:00:07;101565.00;;;14.74;nan
12054;BME280;5638;50.860;4.698;2022-10-31T03:03:09;101559.78;;;14.74;nan
12054;BME280;5638;50.860;4.698;2022-10-31T03:08:43;101567.81;;;14.63;nan
12054;BME280;5638;50.860;4.698;2022-10-31T03:11:12;101559.22;;;14.58;nan
12054;BME280;5638;50.860;4.698;2022-10-31T03:14:09;101562.88;;;14.51;nan
12054;BME280;5638;50.860;4.698;2022-10-31T03:16:54;101551.50;;;14.55;nan
12054;BME280;5638;50.860;4.698;2022-10-31T03:19:41;101560.06;;;14.60;nan
12054;BME280;5638;50.860;4.698;2022-10-31T03:22:15;101566.03;;;14.65;nan
12054;BME280;5638;50.860;4.698;2022-10-31T03:24:43;101556.53;;;14.62;nan
12054;BME280;5638;50.860;4.698;2022-10-31T03:27:13;101550.59;;;14.56;nan
12054;BME280;5638;50.860;4.698;2022-10-31T03:29:42;101562.50;;;14.69;nan
12054;BME280;5638;50.860;4.698;2022-10-31T03:32:21;101545.25;;;14.62;nan
12054;BME280;5638;50.860;4.698;2022-10-31T03:34:49;101568.56;;;14.69;nan
12054;BME280;5638;50.860;4.698;2022-10-31T03:37:19;101573.72;;;14.73;nan
12054;BME280;5638;50.860;4.698;2022-10-31T03:39:48;101549.47;;;14.69;nan
12054;BME280;5638;50.860;4.698;2022-10-31T03:42:28;101545.13;;;14.69;nan
12054;BME280;5638;50.860;4.698;2022-10-31T03:47:29;101545.56;;;14.47;nan
12054;BME280;5638;50.860;4.698;2022-10-31T03:49:56;101544.66;;;14.48;nan
12054;BME280;5638;50.860;4.698;2022-10-31T03:52:28;101554.97;;;14.54;nan
12054;BME280;5638;50.860;4.698;2022-10-31T03:55:24;101550.72;;;14.50;nan
12054;BME280;5638;50.860;4.698;2022-10-31T03:58:03;101554.22;;;14.49;nan
12054;BME280;5638;50.860;4.698;2022-10-31T04:00:34;101547.38;;;14.41;nan
12054;BME280;5638;50.860;4.698;2022-10-31T04:03:10;101552.56;;;14.41;nan
12054;BME280;5638;50.860;4.698;2022-10-31T04:05:38;101546.56;;;14.38;nan
12054;BME280;5638;50.860;4.698;2022-10-31T04:08:12;101556.84;;;14.45;nan
12054;BME280;5638;50.860;4.698;2022-10-31T04:10:42;101554.47;;;14.33;nan
12054;BME280;5638;50.860;4.698;2022-10-31T04:13:19;101520.09;;;14.16;nan
12054;BME280;5638;50.860;4.698;2022-10-31T04:15:49;101563.13;;;14.35;nan
12054;BME280;5638;50.860;4.698;2022-10-31T04:18:17;101558.00;;;14.29;nan
12054;BME280;5638;50.860;4.698;2022-10-31T04:20:42;101553.78;;;14.24;nan
12054;BME280;5638;50.860;4.698;2022-10-31T04:23:29;101547.75;;;14.22;nan
12054;BME280;5638;50.860;4.698;2022-10-31T04:25:55;101545.34;;;14.11;nan
12054;BME280;5638;50.860;4.698;2022-10-31T04:28:21;101554.75;;;14.18;nan
12054;BME280;5638;50.860;4.698;2022-10-31T04:30:47;101535.94;;;14.02;nan
12054;BME280;5638;50.860;4.698;2022-10-31T04:33:13;101553.09;;;14.14;nan
12054;BME280;5638;50.860;4.698;2022-10-31T04:35:40;101554.81;;;14.15;nan
12054;BME280;5638;50.860;4.698;2022-10-31T04:38:06;101523.94;;;13.95;nan
12054;BME280;5638;50.860;4.698;2022-10-31T04:40:32;101548.84;;;14.10;nan
12054;BME280;5638;50.860;4.698;2022-10-31T04:42:57;101548.09;;;14.02;nan
12054;BME280;5638;50.860;4.698;2022-10-31T04:45:23;101537.91;;;13.89;nan
12054;BME280;5638;50.860;4.698;2022-10-31T04:47:49;101543.84;;;13.98;nan
12054;BME280;5638;50.860;4.698;2022-10-31T04:50:15;101548.16;;;13.99;nan
12054;BME280;5638;50.860;4.698;2022-10-31T04:52:42;101546.41;;;14.01;nan
12054;BME280;5638;50.860;4.698;2022-10-31T04:55:10;101549.84;;;14.01;nan
12054;BME280;5638;50.860;4.698;2022-10-31T04:57:44;101536.06;;;13.94;nan
12054;BME280;5638;50.860;4.698;2022-10-31T05:00:13;101547.13;;;14.09;nan
12054;BME280;5638;50.860;4.698;2022-10-31T05:02:54;101548.78;;;14.13;nan
12054;BME280;5638;50.860;4.698;2022-10-31T05:05:24;101547.75;;;14.20;nan
12054;BME280;5638;50.860;4.698;2022-10-31T05:07:51;101551.84;;;14.35;nan
12054;BME280;5638;50.860;4.698;2022-10-31T05:10:21;101543.84;;;14.44;nan
12054;BME280;5638;50.860;4.698;2022-10-31T05:12:56;101538.75;;;14.38;nan
12054;BME280;5638;50.860;4.698;2022-10-31T05:15:24;101520.72;;;14.29;nan
12054;BME280;5638;50.860;4.698;2022-10-31T05:17:52;101528.59;;;14.26;nan
12054;BME280;5638;50.860;4.698;2022-10-31T05:20:21;101532.19;;;14.17;nan
12054;BME280;5638;50.860;4.698;2022-10-31T05:22:52;101523.72;;;14.09;nan
12054;BME280;5638;50.860;4.698;2022-10-31T05:25:20;101519.44;;;14.03;nan
12054;BME280;5638;50.860;4.698;2022-10-31T05:27:48;101523.91;;;13.97;nan
12054;BME280;5638;50.860;4.698;2022-10-31T05:30:19;101521.41;;;13.92;nan
12054;BME280;5638;50.860;4.698;2022-10-31T05:32:49;101519.66;;;13.92;nan
12054;BME280;5638;50.860;4.698;2022-10-31T05:35:23;101516.16;;;13.93;nan
12054;BME280;5638;50.860;4.698;2022-10-31T05:37:49;101532.56;;;13.97;nan
12054;BME280;5638;50.860;4.698;2022-10-31T05:40:18;101522.13;;;13.99;nan
12054;BME280;5638;50.860;4.698;2022-10-31T05:42:45;101510.91;;;13.97;nan
12054;BME280;5638;50.860;4.698;2022-10-31T05:45:16;101527.88;;;14.16;nan
12054;BME280;5638;50.860;4.698;2022-10-31T05:47:53;101524.25;;;14.25;nan
12054;BME280;5638;50.860;4.698;2022-10-31T05:50:19;101502.72;;;14.18;nan
12054;BME280;5638;50.860;4.698;2022-10-31T05:52:46;101506.97;;;14.22;nan
12054;BME280;5638;50.860;4.698;2022-10-31T05:55:13;101514.81;;;14.19;nan
12054;BME280;5638;50.860;4.698;2022-10-31T05:57:38;101518.41;;;14.12;nan
12054;BME280;5638;50.860;4.698;2022-10-31T06:00:05;101516.72;;;14.11;nan
12054;BME280;5638;50.860;4.698;2022-10-31T06:02:31;101512.50;;;14.04;nan
12054;BME280;5638;50.860;4.698;2022-10-31T06:05:01;101526.34;;;14.04;nan
12054;BME280;5638;50.860;4.698;2022-10-31T06:07:32;101512.53;;;14.02;nan
12054;BME280;5638;50.860;4.698;2022-10-31T06:09:58;101513.34;;;14.06;nan
12054;BME280;5638;50.860;4.698;2022-10-31T06:12:23;101513.16;;;14.15;nan
12054;BME280;5638;50.860;4.698;2022-10-31T06:14:49;101512.38;;;14.11;nan
12054;BME280;5638;50.860;4.698;2022-10-31T06:17:15;101507.22;;;14.08;nan
12054;BME280;5638;50.860;4.698;2022-10-31T06:19:41;101508.09;;;14.09;nan
12054;BME280;5638;50.860;4.698;2022-10-31T06:22:07;101518.47;;;14.10;nan
12054;BME280;5638;50.860;4.698;2022-10-31T06:24:33;101518.53;;;14.06;nan
12054;BME280;5638;50.860;4.698;2022-10-31T06:26:59;101491.78;;;13.99;nan
12054;BME280;5638;50.860;4.698;2022-10-31T06:29:24;101503.84;;;14.03;nan
12054;BME280;5638;50.860;4.698;2022-10-31T06:31:53;101519.13;;;14.20;nan
12054;BME280;5638;50.860;4.698;2022-10-31T06:34:19;101501.94;;;14.11;nan
12054;BME280;5638;50.860;4.698;2022-10-31T06:36:46;101514.75;;;14.24;nan
12054;BME280;5638;50.860;4.698;2022-10-31T06:39:13;101522.41;;;14.31;nan
12054;BME280;5638;50.860;4.698;2022-10-31T06:41:38;101512.97;;;14.26;nan
12054;BME280;5638;50.860;4.698;2022-10-31T06:44:06;101523.31;;;14.30;nan
12054;BME280;5638;50.860;4.698;2022-10-31T06:46:33;101523.22;;;14.33;nan
12054;BME280;5638;50.860;4.698;2022-10-31T06:48:59;101513.03;;;14.23;nan
12054;BME280;5638;50.860;4.698;2022-10-31T06:51:25;101508.72;;;14.22;nan
12054;BME280;5638;50.860;4.698;2022-10-31T06:53:51;101507.81;;;14.23;nan
12054;BME280;5638;50.860;4.698;2022-10-31T06:56:17;101506.13;;;14.22;nan
12054;BME280;5638;50.860;4.698;2022-10-31T06:58:42;101511.16;;;14.29;nan
12054;BME280;5638;50.860;4.698;2022-10-31T07:01:08;101506.88;;;14.25;nan
12054;BME280;5638;50.860;4.698;2022-10-31T07:03:34;101512.09;;;14.27;nan
12054;BME280;5638;50.860;4.698;2022-10-31T07:06:00;101509.44;;;14.30;nan
12054;BME280;5638;50.860;4.698;2022-10-31T07:08:26;101504.00;;;14.40;nan
12054;BME280;5638;50.860;4.698;2022-10-31T07:10:55;101498.69;;;14.47;nan
12054;BME280;5638;50.860;4.698;2022-10-31T07:13:22;101496.94;;;14.45;nan
12054;BME280;5638;50.860;4.698;2022-10-31T07:15:54;101494.44;;;14.41;nan
12054;BME280;5638;50.860;4.698;2022-10-31T07:18:21;101505.69;;;14.43;nan
12054;BME280;5638;50.860;4.698;2022-10-31T07:20:48;101516.88;;;14.48;nan
12054;BME280;5638;50.860;4.698;2022-10-31T07:23:14;101514.19;;;14.53;nan
12054;BME280;5638;50.860;4.698;2022-10-31T07:25:40;101509.91;;;14.52;nan
12054;BME280;5638;50.860;4.698;2022-10-31T07:28:06;101501.00;;;14.62;nan
12054;BME280;5638;50.860;4.698;2022-10-31T07:30:33;101502.78;;;14.60;nan
12054;BME280;5638;50.860;4.698;2022-10-31T07:32:58;101492.28;;;14.63;nan
12054;BME280;5638;50.860;4.698;2022-10-31T07:35:28;101487.88;;;14.66;nan
12054;BME280;5638;50.860;4.698;2022-10-31T07:37:55;101482.81;;;14.60;nan
12054;BME280;5638;50.860;4.698;2022-10-31T07:40:22;101522.53;;;14.70;nan
12054;BME280;5638;50.860;4.698;2022-10-31T07:42:52;101533.75;;;14.74;nan
12054;BME280;5638;50.860;4.698;2022-10-31T07:45:20;101528.38;;;14.81;nan
12054;BME280;5638;50.860;4.698;2022-10-31T07:47:52;101504.09;;;14.79;nan
12054;BME280;5638;50.860;4.698;2022-10-31T07:50:24;101508.22;;;14.89;nan
12054;BME280;5638;50.860;4.698;2022-10-31T07:53:02;101489.84;;;14.97;nan
12054;BME280;5638;50.860;4.698;2022-10-31T07:55:29;101503.56;;;15.04;nan
12054;BME280;5638;50.860;4.698;2022-10-31T07:58:11;101501.91;;;15.01;nan
12054;BME280;5638;50.860;4.698;2022-10-31T08:00:40;101498.34;;;15.05;nan
12054;BME280;5638;50.860;4.698;2022-10-31T08:03:10;101488.19;;;14.93;nan
12054;BME280;5638;50.860;4.698;2022-10-31T08:05:37;101494.94;;;15.02;nan
12054;BME280;5638;50.860;4.698;2022-10-31T08:08:06;101466.50;;;14.92;nan
12054;BME280;5638;50.860;4.698;2022-10-31T08:10:34;101480.31;;;14.94;nan
12054;BME280;5638;50.860;4.698;2022-10-31T08:13:12;101481.19;;;14.95;nan
12054;BME280;5638;50.860;4.698;2022-10-31T08:15:38;101482.97;;;14.93;nan
12054;BME280;5638;50.860;4.698;2022-10-31T08:18:14;101448.31;;;14.88;nan
12054;BME280;5638;50.860;4.698;2022-10-31T08:20:41;101446.63;;;14.87;nan
12054;BME280;5638;50.860;4.698;2022-10-31T08:23:10;101444.00;;;14.87;nan
12054;BME280;5638;50.860;4.698;2022-10-31T08:25:37;101454.44;;;14.87;nan
12054;BME280;5638;50.860;4.698;2022-10-31T08:28:04;101458.75;;;14.88;nan
12054;BME280;5638;50.860;4.698;2022-10-31T08:30:35;101455.00;;;15.01;nan
12054;BME280;5638;50.860;4.698;2022-10-31T08:33:15;101434.38;;;14.90;nan
12054;BME280;5638;50.860;4.698;2022-10-31T08:35:41;101431.66;;;14.97;nan
12054;BME280;5638;50.860;4.698;2022-10-31T08:38:10;101420.41;;;14.94;nan
12054;BME280;5638;50.860;4.698;2022-10-31T08:40:37;101428.09;;;15.01;nan
12054;BME280;5638;50.860;4.698;2022-10-31T08:43:16;101426.06;;;15.12;nan
12054;BME280;5638;50.860;4.698;2022-10-31T08:45:44;101427.81;;;15.11;nan
12054;BME280;5638;50.860;4.698;2022-10-31T08:48:13;101436.34;;;15.18;nan
12054;BME280;5638;50.860;4.698;2022-10-31T08:50:40;101434.72;;;15.14;nan
12054;BME280;5638;50.860;4.698;2022-10-31T08:53:18;101441.34;;;15.27;nan
12054;BME280;5638;50.860;4.698;2022-10-31T08:55:46;101426.72;;;15.20;nan
12054;BME280;5638;50.860;4.698;2022-10-31T08:58:19;101432.84;;;15.19;nan
12054;BME280;5638;50.860;4.698;2022-10-31T09:00:50;101418.53;;;15.35;nan
12054;BME280;5638;50.860;4.698;2022-10-31T09:03:29;101399.63;;;15.27;nan
12054;BME280;5638;50.860;4.698;2022-10-31T09:06:01;101399.38;;;15.36;nan
12054;BME280;5638;50.860;4.698;2022-10-31T09:08:32;101409.69;;;15.41;nan
12054;BME280;5638;50.860;4.698;2022-10-31T09:10:59;101403.09;;;15.28;nan
12054;BME280;5638;50.860;4.698;2022-10-31T09:13:25;101390.06;;;15.28;nan
12054;BME280;5638;50.860;4.698;2022-10-31T09:15:51;101400.94;;;15.43;nan
12054;BME280;5638;50.860;4.698;2022-10-31T09:18:21;101425.88;;;15.55;nan
12054;BME280;5638;50.860;4.698;2022-10-31T09:20:49;101411.22;;;15.50;nan
12054;BME280;5638;50.860;4.698;2022-10-31T09:23:21;101412.72;;;15.58;nan
12054;BME280;5638;50.860;4.698;2022-10-31T09:25:49;101388.25;;;15.64;nan
12054;BME280;5638;50.860;4.698;2022-10-31T09:28:19;101392.94;;;15.84;nan
12054;BME280;5638;50.860;4.698;2022-10-31T09:30:51;101421.22;;;15.99;nan
12054;BME280;5638;50.860;4.698;2022-10-31T09:33:19;101404.53;;;16.05;nan
12054;BME280;5638;50.860;4.698;2022-10-31T09:35:45;101399.94;;;16.13;nan
12054;BME280;5638;50.860;4.698;2022-10-31T09:38:20;101383.84;;;15.99;nan
12054;BME280;5638;50.860;4.698;2022-10-31T09:43:50;101390.56;;;16.07;nan
12054;BME280;5638;50.860;4.698;2022-10-31T09:52:12;101384.16;;;16.17;nan
12054;BME280;5638;50.860;4.698;2022-10-31T09:54:53;101390.84;;;16.28;nan
12054;BME280;5638;50.860;4.698;2022-10-31T09:57:34;101373.94;;;16.39;nan
12054;BME280;5638;50.860;4.698;2022-10-31T10:00:04;101348.81;;;16.35;nan
12054;BME280;5638;50.860;4.698;2022-10-31T10:06:04;101358.06;;;16.47;nan
12054;BME280;5638;50.860;4.698;2022-10-31T10:08:34;101353.13;;;16.36;nan
12054;BME280;5638;50.860;4.698;2022-10-31T10:11:45;101359.06;;;16.41;nan
12054;BME280;5638;50.860;4.698;2022-10-31T10:14:36;101361.50;;;16.48;nan
12054;BME280;5638;50.860;4.698;2022-10-31T10:17:28;101359.38;;;16.60;nan
12054;BME280;5638;50.860;4.698;2022-10-31T10:25:56;101344.16;;;16.45;nan
12054;BME280;5638;50.860;4.698;2022-10-31T10:28:33;101321.03;;;16.33;nan
12054;BME280;5638;50.860;4.698;2022-10-31T10:31:15;101333.34;;;16.57;nan
12054;BME280;5638;50.860;4.698;2022-10-31T10:33:57;101331.56;;;16.58;nan
12054;BME280;5638;50.860;4.698;2022-10-31T10:41:50;101317.69;;;16.84;nan
12054;BME280;5638;50.860;4.698;2022-10-31T10:44:44;101316.56;;;17.17;nan
12054;BME280;5638;50.860;4.698;2022-10-31T10:47:42;101315.59;;;17.45;nan
12054;BME280;5638;50.860;4.698;2022-10-31T10:53:18;101305.38;;;18.11;nan
12054;BME280;5638;50.860;4.698;2022-10-31T10:56:16;101304.63;;;18.29;nan
12054;BME280;5638;50.860;4.698;2022-10-31T10:58:43;101285.53;;;18.27;nan
12054;BME280;5638;50.860;4.698;2022-10-31T11:01:13;101286.91;;;18.58;nan
12054;BME280;5638;50.860;4.698;2022-10-31T11:03:41;101273.59;;;18.84;nan
12054;BME280;5638;50.860;4.698;2022-10-31T11:06:23;101272.00;;;19.41;nan
12054;BME280;5638;50.860;4.698;2022-10-31T11:08:52;101270.88;;;19.86;nan
12054;BME280;5638;50.860;4.698;2022-10-31T11:11:29;101272.19;;;20.14;nan
12054;BME280;5638;50.860;4.698;2022-10-31T11:14:12;101262.59;;;20.32;nan
12054;BME280;5638;50.860;4.698;2022-10-31T11:16:46;101258.00;;;20.35;nan
12054;BME280;5638;50.860;4.698;2022-10-31T11:19:21;101227.53;;;20.14;nan
12054;BME280;5638;50.860;4.698;2022-10-31T11:21:48;101233.59;;;19.97;nan
12054;BME280;5638;50.860;4.698;2022-10-31T11:24:24;101234.03;;;19.88;nan
12054;BME280;5638;50.860;4.698;2022-10-31T11:27:05;101220.25;;;19.83;nan
12054;BME280;5638;50.860;4.698;2022-10-31T11:29:35;101201.09;;;19.81;nan
12054;BME280;5638;50.860;4.698;2022-10-31T11:32:02;101207.06;;;19.84;nan
12054;BME280;5638;50.860;4.698;2022-10-31T11:34:42;101194.78;;;19.85;nan
12054;BME280;5638;50.860;4.698;2022-10-31T11:39:44;101180.59;;;20.60;nan
12054;BME280;5638;50.860;4.698;2022-10-31T11:42:11;101193.09;;;21.07;nan
12054;BME280;5638;50.860;4.698;2022-10-31T11:44:42;101191.81;;;21.47;nan
12054;BME280;5638;50.860;4.698;2022-10-31T11:47:17;101181.19;;;21.80;nan
12054;BME280;5638;50.860;4.698;2022-10-31T11:49:47;101165.22;;;21.99;nan
12054;BME280;5638;50.860;4.698;2022-10-31T11:52:25;101160.34;;;22.07;nan
12054;BME280;5638;50.860;4.698;2022-10-31T11:55:31;101130.59;;;22.35;nan
12054;BME280;5638;50.860;4.698;2022-10-31T11:57:57;101154.94;;;22.55;nan
12054;BME280;5638;50.860;4.698;2022-10-31T12:00:34;101146.66;;;22.61;nan
12054;BME280;5638;50.860;4.698;2022-10-31T12:06:11;101145.31;;;22.40;nan
12054;BME280;5638;50.860;4.698;2022-10-31T12:08:40;101117.16;;;22.40;nan
12054;BME280;5638;50.860;4.698;2022-10-31T12:14:45;101113.34;;;22.74;nan
12054;BME280;5638;50.860;4.698;2022-10-31T12:17:17;101108.53;;;23.09;nan
12054;BME280;5638;50.860;4.698;2022-10-31T12:28:42;101069.22;;;23.19;nan
12054;BME280;5638;50.860;4.698;2022-10-31T12:37:40;101053.69;;;23.42;nan
12054;BME280;5638;50.860;4.698;2022-10-31T12:45:56;101036.69;;;23.73;nan
12054;BME280;5638;50.860;4.698;2022-10-31T12:48:50;101021.31;;;23.92;nan
12054;BME280;5638;50.860;4.698;2022-10-31T12:52:07;101013.72;;;24.13;nan
12054;BME280;5638;50.860;4.698;2022-10-31T12:57:38;101007.03;;;24.20;nan
12054;BME280;5638;50.860;4.698;2022-10-31T13:00:17;101005.00;;;24.36;nan
12054;BME280;5638;50.860;4.698;2022-10-31T13:05:44;100998.03;;;23.84;nan
12054;BME280;5638;50.860;4.698;2022-10-31T13:08:17;100992.50;;;23.62;nan
12054;BME280;5638;50.860;4.698;2022-10-31T13:10:51;100991.50;;;23.50;nan
12054;BME280;5638;50.860;4.698;2022-10-31T13:13:32;100976.03;;;23.44;nan
12054;BME280;5638;50.860;4.698;2022-10-31T13:16:10;100985.84;;;23.69;nan
12054;BME280;5638;50.860;4.698;2022-10-31T13:19:19;100977.09;;;23.69;nan
12054;BME280;5638;50.860;4.698;2022-10-31T13:22:00;100953.25;;;23.56;nan
12054;BME280;5638;50.860;4.698;2022-10-31T13:24:59;100944.03;;;23.89;nan
12054;BME280;5638;50.860;4.698;2022-10-31T13:27:47;100949.19;;;23.77;nan
12054;BME280;5638;50.860;4.698;2022-10-31T13:30:27;100937.97;;;23.74;nan
12054;BME280;5638;50.860;4.698;2022-10-31T13:38:57;100926.50;;;23.88;nan
12054;BME280;5638;50.860;4.698;2022-10-31T13:44:29;100915.78;;;24.15;nan
12054;BME280;5638;50.860;4.698;2022-10-31T13:46:57;100910.09;;;24.08;nan
12054;BME280;5638;50.860;4.698;2022-10-31T13:49:36;100905.41;;;24.11;nan
12054;BME280;5638;50.860;4.698;2022-10-31T13:54:39;100897.00;;;23.68;nan
12054;BME280;5638;50.860;4.698;2022-10-31T13:59:57;100882.47;;;23.61;nan
12054;BME280;5638;50.860;4.698;2022-10-31T14:02:31;100852.16;;;23.41;nan
12054;BME280;5638;50.860;4.698;2022-10-31T14:07:45;100858.06;;;23.45;nan
12054;BME280;5638;50.860;4.698;2022-10-31T14:10:35;100847.41;;;23.33;nan
12054;BME280;5638;50.860;4.698;2022-10-31T14:15:59;100850.09;;;23.06;nan
12054;BME280;5638;50.860;4.698;2022-10-31T14:18:32;100835.63;;;22.99;nan
12054;BME280;5638;50.860;4.698;2022-10-31T14:20:59;100841.69;;;22.87;nan
12054;BME280;5638;50.860;4.698;2022-10-31T14:31:43;100822.53;;;23.10;nan
12054;BME280;5638;50.860;4.698;2022-10-31T14:34:32;100817.25;;;23.10;nan
12054;BME280;5638;50.860;4.698;2022-10-31T14:40:14;100822.13;;;22.77;nan
12054;BME280;5638;50.860;4.698;2022-10-31T14:51:43;100818.19;;;22.16;nan
12054;BME280;5638;50.860;4.698;2022-10-31T14:54:41;100810.81;;;22.06;nan
12054;BME280;5638;50.860;4.698;2022-10-31T14:57:28;100805.66;;;22.05;nan
12054;BME280;5638;50.860;4.698;2022-10-31T15:00:02;100804.69;;;22.06;nan
12054;BME280;5638;50.860;4.698;2022-10-31T15:02:58;100800.56;;;22.02;nan
12054;BME280;5638;50.860;4.698;2022-10-31T15:05:28;100798.47;;;22.07;nan
12054;BME280;5638;50.860;4.698;2022-10-31T15:07:57;100793.97;;;22.09;nan
12054;BME280;5638;50.860;4.698;2022-10-31T15:10:32;100782.22;;;22.00;nan
12054;BME280;5638;50.860;4.698;2022-10-31T15:13:19;100791.16;;;21.98;nan
12054;BME280;5638;50.860;4.698;2022-10-31T15:15:48;100785.53;;;21.89;nan
12054;BME280;5638;50.860;4.698;2022-10-31T15:18:27;100779.13;;;21.94;nan
12054;BME280;5638;50.860;4.698;2022-10-31T15:20:56;100773.72;;;21.82;nan
12054;BME280;5638;50.860;4.698;2022-10-31T15:23:29;100770.72;;;21.74;nan
12054;BME280;5638;50.860;4.698;2022-10-31T15:26:03;100761.28;;;21.56;nan
12054;BME280;5638;50.860;4.698;2022-10-31T15:28:30;100757.31;;;21.20;nan
12054;BME280;5638;50.860;4.698;2022-10-31T15:31:02;100753.78;;;20.91;nan
12054;BME280;5638;50.860;4.698;2022-10-31T15:33:39;100744.84;;;20.94;nan
12054;BME280;5638;50.860;4.698;2022-10-31T15:36:06;100748.00;;;20.70;nan
12054;BME280;5638;50.860;4.698;2022-10-31T15:38:32;100735.75;;;20.55;nan
12054;BME280;5638;50.860;4.698;2022-10-31T15:41:24;100732.38;;;20.53;nan
12054;BME280;5638;50.860;4.698;2022-10-31T15:43:54;100749.91;;;20.52;nan
12054;BME280;5638;50.860;4.698;2022-10-31T15:46:21;100747.19;;;20.38;nan
12054;BME280;5638;50.860;4.698;2022-10-31T15:48:48;100738.81;;;20.31;nan
12054;BME280;5638;50.860;4.698;2022-10-31T15:51:14;100734.97;;;20.07;nan
12054;BME280;5638;50.860;4.698;2022-10-31T15:53:49;100747.66;;;19.99;nan
12054;BME280;5638;50.860;4.698;2022-10-31T15:56:30;100740.88;;;19.95;nan
12054;BME280;5638;50.860;4.698;2022-10-31T15:58:58;100733.31;;;19.73;nan
12054;BME280;5638;50.860;4.698;2022-10-31T16:01:32;100731.50;;;19.57;nan